Time;durP1;ratioP1;P1;durP2;ratioP2;P2;SDS_P1;SDS_P2;PMS_P1;PMS_P2;Temp;Humidity;BMP_temperature;BMP_pressure;BME280_temperature;BME280_humidity;BME280_pressure;Samples;Min_cycle;Max_cycle;Signal;HPM_P1;HPM_P2
2023/03/15 00:01:17;;;;;;;0.20;0.20;;;;;;;;;;4986808;28;20189;-78
2023/03/15 00:04:04;;;;;;;0.20;0.20;;;;;;;;;;4986869;28;20381;-78
2023/03/15 00:06:52;;;;;;;0.20;0.20;;;;;;;;;;4982819;28;20419;-77
2023/03/15 00:09:38;;;;;;;0.20;0.20;;;;;;;;;;4986257;28;20057;-77
2023/03/15 00:12:23;;;;;;;0.20;0.20;;;;;;;;;;4984097;28;20038;-77
2023/03/15 00:15:11;;;;;;;0.20;0.20;;;;;;;;;;4978532;28;20049;-78
2023/03/15 00:17:57;;;;;;;0.20;0.20;;;;;;;;;;4982592;28;20034;-78
2023/03/15 00:20:43;;;;;;;0.20;0.20;;;;;;;;;;4995145;28;20037;-77
2023/03/15 00:23:30;;;;;;;0.20;0.20;;;;;;;;;;4985534;28;20030;-77
2023/03/15 00:26:16;;;;;;;0.20;0.20;;;;;;;;;;4984137;28;20034;-78
2023/03/15 00:29:04;;;;;;;0.20;0.20;;;;;;;;;;4982380;28;20431;-77
2023/03/15 00:31:51;;;;;;;0.20;0.20;;;;;;;;;;4982447;28;20042;-78
2023/03/15 00:34:41;;;;;;;0.20;0.20;;;;;;;;;;4981962;28;20565;-77
2023/03/15 00:37:26;;;;;;;0.20;0.20;;;;;;;;;;4989346;28;20502;-77
2023/03/15 00:40:12;;;;;;;0.20;0.20;;;;;;;;;;4987065;28;20567;-77
2023/03/15 00:42:58;;;;;;;0.20;0.20;;;;;;;;;;4988729;28;20117;-77
2023/03/15 00:45:44;;;;;;;0.20;0.20;;;;;;;;;;4993737;28;20096;-77
2023/03/15 00:48:34;;;;;;;0.20;0.20;;;;;;;;;;4992379;28;20487;-77
2023/03/15 00:51:20;;;;;;;0.20;0.20;;;;;;;;;;4993355;28;20042;-78
2023/03/15 00:54:06;;;;;;;0.20;0.20;;;;;;;;;;4984878;28;20402;-77
2023/03/15 00:56:52;;;;;;;0.20;0.20;;;;;;;;;;4986868;28;20541;-77
2023/03/15 00:59:38;;;;;;;0.20;0.20;;;;;;;;;;4991322;28;20043;-78
2023/03/15 01:02:23;;;;;;;0.10;0.10;;;;;;;;;;4988678;28;20043;-77
2023/03/15 01:05:10;;;;;;;0.20;0.20;;;;;;;;;;4989315;28;20045;-77
2023/03/15 01:07:56;;;;;;;0.20;0.20;;;;;;;;;;4985344;28;20642;-77
2023/03/15 01:10:42;;;;;;;0.20;0.20;;;;;;;;;;4986405;28;20034;-77
2023/03/15 01:13:29;;;;;;;0.20;0.20;;;;;;;;;;4989804;28;20042;-77
2023/03/15 01:16:15;;;;;;;0.20;0.20;;;;;;;;;;4991194;28;20436;-77
2023/03/15 01:19:01;;;;;;;0.20;0.20;;;;;;;;;;4988683;28;20042;-77
2023/03/15 01:21:47;;;;;;;0.20;0.20;;;;;;;;;;4983738;28;20035;-77
2023/03/15 01:24:35;;;;;;;0.20;0.20;;;;;;;;;;4986504;28;20038;-77
2023/03/15 01:27:21;;;;;;;0.20;0.20;;;;;;;;;;4989971;28;20707;-77
2023/03/15 01:30:07;;;;;;;0.20;0.20;;;;;;;;;;4984578;28;20199;-77
2023/03/15 01:32:53;;;;;;;0.20;0.20;;;;;;;;;;4987138;28;20362;-77
2023/03/15 01:35:39;;;;;;;0.20;0.20;;;;;;;;;;4977918;28;20038;-77
2023/03/15 01:38:25;;;;;;;0.20;0.20;;;;;;;;;;4988603;28;20087;-76
2023/03/15 01:41:12;;;;;;;0.20;0.20;;;;;;;;;;4983887;28;20034;-76
2023/03/15 01:43:58;;;;;;;0.20;0.20;;;;;;;;;;4990869;28;20296;-76
2023/03/15 01:46:44;;;;;;;0.20;0.20;;;;;;;;;;4984406;28;20118;-76
2023/03/15 01:49:34;;;;;;;0.20;0.20;;;;;;;;;;4984327;28;20127;-77
2023/03/15 01:52:24;;;;;;;0.20;0.20;;;;;;;;;;4988838;28;20282;-77
2023/03/15 01:55:23;;;;;;;0.20;0.20;;;;;;;;;;4987615;28;20029;-77
2023/03/15 01:58:26;;;;;;;0.20;0.20;;;;;;;;;;4991975;28;20301;-76
2023/03/15 02:01:13;;;;;;;0.20;0.20;;;;;;;;;;4983870;28;20567;-76
2023/03/15 02:04:05;;;;;;;0.20;0.20;;;;;;;;;;4986925;28;20435;-76
2023/03/15 02:06:58;;;;;;;0.20;0.20;;;;;;;;;;4982419;28;20423;-77
2023/03/15 02:10:09;;;;;;;0.20;0.20;;;;;;;;;;4980788;28;20046;-76
2023/03/15 02:12:56;;;;;;;0.20;0.20;;;;;;;;;;4988496;28;20628;-77
2023/03/15 02:15:45;;;;;;;0.20;0.20;;;;;;;;;;4984435;28;20080;-77
2023/03/15 02:18:34;;;;;;;0.20;0.20;;;;;;;;;;4992693;28;20038;-78
2023/03/15 02:21:20;;;;;;;0.17;0.17;;;;;;;;;;4984281;28;20034;-78
2023/03/15 02:24:09;;;;;;;0.20;0.20;;;;;;;;;;4985540;28;20809;-76
2023/03/15 02:26:56;;;;;;;0.20;0.20;;;;;;;;;;4988529;28;20133;-76
2023/03/15 02:29:43;;;;;;;0.20;0.20;;;;;;;;;;4971402;28;20031;-76
2023/03/15 02:32:29;;;;;;;0.10;0.10;;;;;;;;;;4984092;28;20054;-76
2023/03/15 02:35:23;;;;;;;0.20;0.20;;;;;;;;;;4985420;28;20047;-76
2023/03/15 02:38:10;;;;;;;0.20;0.20;;;;;;;;;;4982269;28;20054;-76
2023/03/15 02:40:57;;;;;;;0.20;0.20;;;;;;;;;;4981786;28;20034;-76
2023/03/15 02:43:44;;;;;;;0.20;0.20;;;;;;;;;;4982335;28;20041;-76
2023/03/15 02:46:30;;;;;;;0.15;0.15;;;;;;;;;;4983618;28;20316;-76
2023/03/15 02:49:16;;;;;;;0.20;0.20;;;;;;;;;;4982124;28;20268;-77
2023/03/15 02:52:02;;;;;;;0.20;0.20;;;;;;;;;;4984429;28;20034;-78
2023/03/15 02:54:49;;;;;;;0.20;0.20;;;;;;;;;;4988546;28;20087;-77
2023/03/15 02:57:35;;;;;;;0.20;0.20;;;;;;;;;;4984489;28;20049;-78
2023/03/15 03:00:21;;;;;;;0.10;0.10;;;;;;;;;;4989126;28;20043;-77
2023/03/15 03:03:07;;;;;;;0.20;0.20;;;;;;;;;;4987259;28;20573;-77
2023/03/15 03:05:53;;;;;;;0.20;0.20;;;;;;;;;;4984313;28;20036;-78
2023/03/15 03:08:39;;;;;;;0.20;0.20;;;;;;;;;;4995345;28;20512;-77
2023/03/15 03:11:26;;;;;;;0.20;0.20;;;;;;;;;;4982817;28;20450;-77
2023/03/15 03:14:15;;;;;;;0.10;0.10;;;;;;;;;;4995981;28;20026;-77
2023/03/15 03:17:01;;;;;;;0.20;0.20;;;;;;;;;;4987250;28;20292;-77
2023/03/15 03:19:47;;;;;;;0.20;0.20;;;;;;;;;;4983230;28;20100;-77
2023/03/15 03:22:35;;;;;;;0.10;0.10;;;;;;;;;;4986338;28;20041;-75
2023/03/15 03:25:25;;;;;;;0.20;0.20;;;;;;;;;;4984851;28;20030;-75
2023/03/15 03:28:11;;;;;;;0.20;0.20;;;;;;;;;;4988870;28;20371;-75
2023/03/15 03:30:58;;;;;;;0.10;0.10;;;;;;;;;;4983877;28;20042;-75
2023/03/15 03:33:43;;;;;;;0.20;0.20;;;;;;;;;;4986591;28;20128;-74
2023/03/15 03:36:29;;;;;;;0.20;0.20;;;;;;;;;;4983563;28;20494;-75
2023/03/15 03:39:15;;;;;;;0.20;0.20;;;;;;;;;;4984904;28;20038;-75
2023/03/15 03:42:03;;;;;;;0.20;0.20;;;;;;;;;;4987961;28;20046;-76
2023/03/15 03:44:49;;;;;;;0.20;0.20;;;;;;;;;;4984857;28;20483;-76
2023/03/15 03:47:35;;;;;;;0.20;0.20;;;;;;;;;;4984849;28;20030;-76
2023/03/15 03:50:21;;;;;;;0.20;0.20;;;;;;;;;;4990271;28;20030;-76
2023/03/15 03:53:07;;;;;;;0.20;0.20;;;;;;;;;;4988372;28;20123;-76
2023/03/15 03:55:54;;;;;;;0.20;0.20;;;;;;;;;;4995700;28;20513;-76
2023/03/15 03:58:41;;;;;;;0.20;0.20;;;;;;;;;;4982193;28;20121;-76
2023/03/15 04:01:37;;;;;;;0.20;0.20;;;;;;;;;;4983933;28;20137;-75
2023/03/15 04:04:26;;;;;;;0.20;0.20;;;;;;;;;;4982626;28;20108;-75
2023/03/15 04:07:12;;;;;;;0.20;0.20;;;;;;;;;;4982470;28;20103;-76
2023/03/15 04:10:01;;;;;;;0.20;0.20;;;;;;;;;;4981489;28;20058;-76
2023/03/15 04:12:47;;;;;;;0.17;0.17;;;;;;;;;;4980885;28;20490;-75
2023/03/15 04:15:33;;;;;;;0.20;0.20;;;;;;;;;;4980719;28;20044;-76
2023/03/15 04:18:20;;;;;;;0.20;0.20;;;;;;;;;;4994955;28;20140;-75
2023/03/15 04:21:09;;;;;;;0.20;0.20;;;;;;;;;;4984626;28;20070;-76
2023/03/15 04:23:55;;;;;;;0.20;0.20;;;;;;;;;;4983225;28;20041;-75
2023/03/15 04:26:56;;;;;;;0.20;0.20;;;;;;;;;;4981493;28;20038;-75
2023/03/15 04:30:04;;;;;;;0.15;0.15;;;;;;;;;;4983232;28;20153;-75
2023/03/15 04:33:10;;;;;;;0.20;0.20;;;;;;;;;;4987274;28;20042;-75
2023/03/15 04:36:17;;;;;;;0.20;0.20;;;;;;;;;;4985105;28;20328;-75
2023/03/15 04:39:38;;;;;;;0.20;0.20;;;;;;;;;;4920168;28;20078;-75
2023/03/15 04:42:47;;;;;;;0.20;0.20;;;;;;;;;;4984465;28;20034;-75
2023/03/15 04:46:00;;;;;;;0.20;0.20;;;;;;;;;;4984770;28;20087;-75
2023/03/15 04:49:04;;;;;;;0.20;0.20;;;;;;;;;;4983268;28;20104;-77
2023/03/15 04:52:12;;;;;;;0.10;0.10;;;;;;;;;;4983097;28;20034;-76
2023/03/15 04:54:58;;;;;;;0.20;0.20;;;;;;;;;;4987744;28;20121;-76
2023/03/15 04:58:02;;;;;;;0.10;0.10;;;;;;;;;;4984065;28;20459;-76
2023/03/15 05:00:51;;;;;;;0.20;0.20;;;;;;;;;;4984956;28;20073;-76
2023/03/15 05:03:49;;;;;;;0.20;0.20;;;;;;;;;;4985887;28;20030;-76
2023/03/15 05:06:41;;;;;;;;;;;;;;;;;;4982771;28;20620;-76
2023/03/15 05:09:40;;;;;;;0.20;0.20;;;;;;;;;;4986467;28;20295;-76
2023/03/15 05:12:45;;;;;;;0.20;0.20;;;;;;;;;;4980847;28;20117;-76
2023/03/15 05:15:54;;;;;;;0.20;0.20;;;;;;;;;;4960868;28;20030;-76
2023/03/15 05:18:56;;;;;;;0.30;0.30;;;;;;;;;;4984036;28;20033;-76
2023/03/15 05:22:08;;;;;;;0.20;0.20;;;;;;;;;;4983302;28;20069;-77
2023/03/15 05:25:11;;;;;;;0.15;0.15;;;;;;;;;;4985268;28;20118;-77
2023/03/15 05:28:32;;;;;;;0.10;0.10;;;;;;;;;;4985212;28;20034;-77
2023/03/15 05:31:47;;;;;;;0.20;0.20;;;;;;;;;;4991034;28;20038;-77
2023/03/15 05:34:46;;;;;;;0.20;0.20;;;;;;;;;;4983366;28;20031;-76
2023/03/15 05:37:46;;;;;;;0.20;0.20;;;;;;;;;;4991104;28;20672;-77
2023/03/15 05:40:53;;;;;;;0.10;0.10;;;;;;;;;;4984644;28;20041;-77
2023/03/15 05:44:17;;;;;;;0.20;0.20;;;;;;;;;;4941131;28;20126;-77
2023/03/15 05:47:29;;;;;;;0.20;0.20;;;;;;;;;;4937651;28;20043;-78
2023/03/15 05:50:33;;;;;;;0.20;0.20;;;;;;;;;;4991626;28;20085;-80
2023/03/15 05:53:52;;;;;;;0.20;0.20;;;;;;;;;;4989521;28;20038;-79
2023/03/15 05:57:01;;;;;;;0.20;0.20;;;;;;;;;;4990208;28;20253;-79
2023/03/15 06:00:07;;;;;;;0.20;0.20;;;;;;;;;;4990188;28;20061;-80
2023/03/15 06:02:59;;;;;;;0.10;0.10;;;;;;;;;;4989095;28;20046;-79
2023/03/15 06:06:06;;;;;;;0.20;0.20;;;;;;;;;;4991438;28;20030;-79
2023/03/15 06:08:57;;;;;;;0.20;0.20;;;;;;;;;;4990536;28;20422;-80
2023/03/15 06:11:43;;;;;;;0.20;0.20;;;;;;;;;;4987044;28;20671;-80
2023/03/15 06:14:31;;;;;;;0.20;0.20;;;;;;;;;;4993159;28;20100;-78
2023/03/15 06:17:22;;;;;;;0.20;0.20;;;;;;;;;;4988878;28;20042;-77
2023/03/15 06:20:08;;;;;;;0.20;0.20;;;;;;;;;;4988752;28;20045;-78
2023/03/15 06:22:54;;;;;;;0.20;0.20;;;;;;;;;;4987146;28;20034;-79
2023/03/15 06:25:49;;;;;;;0.10;0.10;;;;;;;;;;4988066;28;20951;-77
2023/03/15 06:28:36;;;;;;;0.20;0.20;;;;;;;;;;4988402;28;20062;-78
2023/03/15 06:31:23;;;;;;;0.20;0.20;;;;;;;;;;4988108;28;20117;-78
2023/03/15 06:34:16;;;;;;;0.20;0.20;;;;;;;;;;4987153;28;20046;-78
2023/03/15 06:37:02;;;;;;;0.20;0.20;;;;;;;;;;4987139;28;20046;-80
2023/03/15 06:39:49;;;;;;;0.20;0.20;;;;;;;;;;4990743;28;20045;-80
2023/03/15 06:42:35;;;;;;;0.20;0.20;;;;;;;;;;4990547;28;20230;-79
2023/03/15 06:45:22;;;;;;;0.20;0.20;;;;;;;;;;4989252;28;20434;-80
2023/03/15 06:48:08;;;;;;;0.20;0.20;;;;;;;;;;4992111;28;20796;-80
2023/03/15 06:50:54;;;;;;;0.20;0.20;;;;;;;;;;4988342;28;20041;-80
2023/03/15 06:53:41;;;;;;;0.20;0.20;;;;;;;;;;4989905;28;20034;-78
2023/03/15 06:56:27;;;;;;;0.20;0.20;;;;;;;;;;4986576;28;20045;-80
2023/03/15 06:59:12;;;;;;;0.20;0.20;;;;;;;;;;4988467;28;20046;-78
2023/03/15 07:01:59;;;;;;;0.20;0.20;;;;;;;;;;4986605;28;20042;-78
2023/03/15 07:04:46;;;;;;;0.20;0.20;;;;;;;;;;4980829;28;20691;-80
2023/03/15 07:07:33;;;;;;;0.20;0.20;;;;;;;;;;4981835;28;20513;-80
2023/03/15 07:10:20;;;;;;;0.15;0.15;;;;;;;;;;4997985;28;20558;-79
2023/03/15 07:13:06;;;;;;;0.20;0.20;;;;;;;;;;4986867;28;20033;-79
2023/03/15 07:15:52;;;;;;;0.20;0.20;;;;;;;;;;4984653;28;20482;-77
2023/03/15 07:18:38;;;;;;;0.20;0.20;;;;;;;;;;4986269;28;20887;-78
2023/03/15 07:21:25;;;;;;;0.20;0.20;;;;;;;;;;4987113;28;20156;-78
2023/03/15 07:24:10;;;;;;;0.20;0.20;;;;;;;;;;4990175;28;20435;-78
2023/03/15 07:26:56;;;;;;;0.20;0.20;;;;;;;;;;4988798;28;20030;-80
2023/03/15 07:29:42;;;;;;;0.20;0.20;;;;;;;;;;4987370;28;20564;-80
2023/03/15 07:32:29;;;;;;;0.20;0.20;;;;;;;;;;4999607;28;20038;-80
2023/03/15 07:35:16;;;;;;;0.20;0.20;;;;;;;;;;4985309;28;20037;-80
2023/03/15 07:38:02;;;;;;;0.20;0.20;;;;;;;;;;4987735;28;20454;-78
2023/03/15 07:40:48;;;;;;;0.20;0.20;;;;;;;;;;4989793;28;20290;-78
2023/03/15 07:43:34;;;;;;;0.20;0.20;;;;;;;;;;4987881;28;20108;-78
2023/03/15 07:46:37;;;;;;;0.20;0.20;;;;;;;;;;4990512;28;20045;-80
2023/03/15 07:49:23;;;;;;;0.20;0.20;;;;;;;;;;4985918;28;20371;-80
2023/03/15 07:52:09;;;;;;;0.20;0.20;;;;;;;;;;4986482;28;20491;-79
2023/03/15 07:54:54;;;;;;;0.20;0.20;;;;;;;;;;4989214;28;20423;-81
2023/03/15 07:57:40;;;;;;;0.20;0.20;;;;;;;;;;4983539;28;20056;-80
2023/03/15 08:00:26;;;;;;;0.20;0.20;;;;;;;;;;4986416;28;20094;-78
2023/03/15 08:03:12;;;;;;;0.20;0.20;;;;;;;;;;4985805;28;20037;-79
2023/03/15 08:05:57;;;;;;;0.20;0.20;;;;;;;;;;4984462;28;20057;-79
2023/03/15 08:08:43;;;;;;;0.20;0.20;;;;;;;;;;4984036;28;20103;-80
2023/03/15 08:11:29;;;;;;;0.20;0.20;;;;;;;;;;4984146;28;20701;-80
2023/03/15 08:14:14;;;;;;;0.20;0.20;;;;;;;;;;4988342;28;20034;-79
2023/03/15 08:17:00;;;;;;;0.20;0.20;;;;;;;;;;4988130;28;20046;-78
2023/03/15 08:19:46;;;;;;;0.20;0.20;;;;;;;;;;4986813;28;20037;-78
2023/03/15 08:22:32;;;;;;;0.30;0.30;;;;;;;;;;4978577;28;20034;-78
2023/03/15 08:25:19;;;;;;;0.20;0.20;;;;;;;;;;4986922;28;20100;-78
2023/03/15 08:28:05;;;;;;;0.10;0.10;;;;;;;;;;4983720;28;20041;-76
2023/03/15 08:30:50;;;;;;;0.20;0.20;;;;;;;;;;4982817;28;20037;-76
2023/03/15 08:33:36;;;;;;;0.20;0.20;;;;;;;;;;4987736;28;20026;-77
2023/03/15 08:36:22;;;;;;;0.20;0.20;;;;;;;;;;4989898;28;20061;-77
2023/03/15 08:39:07;;;;;;;0.20;0.20;;;;;;;;;;4984625;28;20038;-77
2023/03/15 08:41:53;;;;;;;0.30;0.30;;;;;;;;;;4987867;28;20481;-77
2023/03/15 08:44:39;;;;;;;0.25;0.25;;;;;;;;;;4986844;28;20041;-77
2023/03/15 08:47:25;;;;;;;0.30;0.30;;;;;;;;;;4984165;28;20566;-77
2023/03/15 08:50:13;;;;;;;0.30;0.30;;;;;;;;;;4985880;28;20104;-77
2023/03/15 08:52:59;;;;;;;0.20;0.20;;;;;;;;;;4988764;28;20045;-77
2023/03/15 08:55:44;;;;;;;0.30;0.30;;;;;;;;;;4983908;28;20041;-78
2023/03/15 08:58:33;;;;;;;0.20;0.20;;;;;;;;;;4988395;28;20394;-78
2023/03/15 09:01:19;;;;;;;0.22;0.22;;;;;;;;;;4992898;28;20050;-78
2023/03/15 09:04:04;;;;;;;0.20;0.20;;;;;;;;;;4987093;28;20045;-78
2023/03/15 09:06:50;;;;;;;0.20;0.20;;;;;;;;;;4985706;28;20512;-78
2023/03/15 09:09:36;;;;;;;0.20;0.20;;;;;;;;;;4985408;28;20531;-77
2023/03/15 09:12:22;;;;;;;0.22;0.22;;;;;;;;;;4987645;28;20100;-77
2023/03/15 09:15:08;;;;;;;0.30;0.30;;;;;;;;;;4988772;28;20048;-77
2023/03/15 09:17:53;;;;;;;0.20;0.20;;;;;;;;;;4986551;28;20037;-77
2023/03/15 09:20:40;;;;;;;0.20;0.20;;;;;;;;;;4990519;28;20112;-77
2023/03/15 09:23:25;;;;;;;0.20;0.20;;;;;;;;;;4986733;28;20517;-77
2023/03/15 09:26:11;;;;;;;0.20;0.20;;;;;;;;;;4989053;28;20038;-77
2023/03/15 09:28:57;;;;;;;0.20;0.20;;;;;;;;;;4984697;28;20039;-78
2023/03/15 09:31:42;;;;;;;0.20;0.20;;;;;;;;;;4988691;28;20526;-77
2023/03/15 09:34:28;;;;;;;0.20;0.20;;;;;;;;;;4988038;28;20063;-77
2023/03/15 09:37:14;;;;;;;0.20;0.20;;;;;;;;;;4989137;28;20041;-77
2023/03/15 09:40:00;;;;;;;0.30;0.30;;;;;;;;;;4988148;28;20039;-77
2023/03/15 09:42:46;;;;;;;0.20;0.20;;;;;;;;;;4988699;28;20089;-77
2023/03/15 09:45:40;;;;;;;0.20;0.20;;;;;;;;;;4988551;28;20406;-78
2023/03/15 09:48:31;;;;;;;0.20;0.20;;;;;;;;;;4990310;28;20045;-78
2023/03/15 09:51:41;;;;;;;0.20;0.20;;;;;;;;;;4988882;28;20333;-78
2023/03/15 09:54:31;;;;;;;0.20;0.20;;;;;;;;;;4991741;28;20474;-78
2023/03/15 09:57:25;;;;;;;0.20;0.20;;;;;;;;;;4994325;28;20045;-78
2023/03/15 10:00:19;;;;;;;0.30;0.30;;;;;;;;;;4987281;28;20034;-78
2023/03/15 10:03:08;;;;;;;0.20;0.20;;;;;;;;;;4989411;28;20041;-78
2023/03/15 10:06:23;;;;;;;0.20;0.20;;;;;;;;;;4986705;28;20085;-78
2023/03/15 10:09:14;;;;;;;0.20;0.20;;;;;;;;;;4988122;28;20616;-78
2023/03/15 10:12:00;;;;;;;;;;;;;;;;;;4984251;28;20037;-76
2023/03/15 10:15:04;;;;;;;0.20;0.20;;;;;;;;;;4985573;28;19992;-76
2023/03/15 10:18:08;;;;;;;0.17;0.17;;;;;;;;;;4984958;28;21740;-76
2023/03/15 10:21:10;;;;;;;0.20;0.20;;;;;;;;;;4986124;28;20034;-76
2023/03/15 10:23:56;;;;;;;;;;;;;;;;;;4992356;28;20026;-77
2023/03/15 10:26:43;;;;;;;0.20;0.20;;;;;;;;;;4961437;28;19914;-76
2023/03/15 10:29:29;;;;;;;0.20;0.20;;;;;;;;;;4986582;28;20773;-77
2023/03/15 10:32:17;;;;;;;0.20;0.20;;;;;;;;;;4991622;28;20037;-77
2023/03/15 10:35:10;;;;;;;0.30;0.30;;;;;;;;;;4986763;28;20042;-77
2023/03/15 10:37:55;;;;;;;0.20;0.20;;;;;;;;;;4988468;28;20566;-76
2023/03/15 10:40:50;;;;;;;0.20;0.20;;;;;;;;;;4987493;28;20038;-77
2023/03/15 10:43:38;;;;;;;0.30;0.30;;;;;;;;;;4988350;28;20053;-77
2023/03/15 10:46:24;;;;;;;0.30;0.30;;;;;;;;;;4985814;28;20033;-77
2023/03/15 10:49:10;;;;;;;0.20;0.20;;;;;;;;;;4986611;28;20041;-77
2023/03/15 10:51:58;;;;;;;0.30;0.30;;;;;;;;;;4985668;28;20141;-77
2023/03/15 10:54:44;;;;;;;0.50;0.40;;;;;;;;;;4993055;28;20029;-77
2023/03/15 10:57:35;;;;;;;0.20;0.20;;;;;;;;;;4983707;28;20038;-77
2023/03/15 11:00:28;;;;;;;0.30;0.30;;;;;;;;;;4987182;28;20034;-77
2023/03/15 11:03:15;;;;;;;0.20;0.20;;;;;;;;;;4983318;28;20541;-77
2023/03/15 11:06:16;;;;;;;0.20;0.20;;;;;;;;;;4982366;28;20037;-77
2023/03/15 11:09:16;;;;;;;0.20;0.20;;;;;;;;;;4985507;28;20790;-77
2023/03/15 11:12:05;;;;;;;0.20;0.20;;;;;;;;;;4986025;28;20053;-77
2023/03/15 11:15:12;;;;;;;0.20;0.20;;;;;;;;;;4985865;28;20509;-77
2023/03/15 11:17:58;;;;;;;0.20;0.20;;;;;;;;;;4983899;28;20037;-77
2023/03/15 11:20:46;;;;;;;0.20;0.20;;;;;;;;;;4986697;28;20596;-77
2023/03/15 11:23:35;;;;;;;0.20;0.20;;;;;;;;;;4986885;28;20089;-77
2023/03/15 11:26:22;;;;;;;0.30;0.30;;;;;;;;;;4985986;28;20605;-78
2023/03/15 11:29:16;;;;;;;0.38;0.38;;;;;;;;;;4984316;28;20056;-77
2023/03/15 11:32:09;;;;;;;0.20;0.20;;;;;;;;;;4983304;28;20045;-77
2023/03/15 11:35:04;;;;;;;0.20;0.20;;;;;;;;;;4987925;28;20105;-77
2023/03/15 11:37:52;;;;;;;0.20;0.20;;;;;;;;;;4986458;28;20092;-77
2023/03/15 11:40:47;;;;;;;0.20;0.20;;;;;;;;;;4985030;28;20117;-77
2023/03/15 11:43:56;;;;;;;0.20;0.20;;;;;;;;;;4983267;28;20026;-77
2023/03/15 11:47:02;;;;;;;0.20;0.20;;;;;;;;;;4983059;28;20087;-77
2023/03/15 11:49:50;;;;;;;0.20;0.20;;;;;;;;;;4986868;28;20822;-77
2023/03/15 11:52:35;;;;;;;0.20;0.20;;;;;;;;;;4980015;28;20391;-76
2023/03/15 11:55:29;;;;;;;0.20;0.20;;;;;;;;;;4982839;28;20411;-77
2023/03/15 11:58:44;;;;;;;0.30;0.30;;;;;;;;;;4985134;28;20034;-77
2023/03/15 12:01:32;;;;;;;0.20;0.20;;;;;;;;;;4987647;28;20053;-78
2023/03/15 12:04:24;;;;;;;0.20;0.20;;;;;;;;;;4983782;28;20041;-77
2023/03/15 12:07:18;;;;;;;0.40;0.30;;;;;;;;;;4985997;28;20053;-77
2023/03/15 12:10:04;;;;;;;0.40;0.40;;;;;;;;;;4984030;28;20046;-78
2023/03/15 12:12:57;;;;;;;0.40;0.40;;;;;;;;;;4986191;28;20033;-78
2023/03/15 12:15:44;;;;;;;0.20;0.20;;;;;;;;;;4986368;28;20080;-78
2023/03/15 12:18:31;;;;;;;0.30;0.30;;;;;;;;;;4984342;28;20530;-78
2023/03/15 12:21:19;;;;;;;0.30;0.30;;;;;;;;;;4985417;28;20092;-78
2023/03/15 12:24:06;;;;;;;0.20;0.20;;;;;;;;;;4979630;28;20112;-78
2023/03/15 12:26:58;;;;;;;0.30;0.30;;;;;;;;;;4961077;28;20038;-78
2023/03/15 12:29:47;;;;;;;0.20;0.20;;;;;;;;;;4988337;28;20052;-77
2023/03/15 12:32:42;;;;;;;0.20;0.20;;;;;;;;;;4982471;28;20034;-77
2023/03/15 12:35:31;;;;;;;0.20;0.20;;;;;;;;;;4982200;28;20034;-78
2023/03/15 12:38:18;;;;;;;0.20;0.20;;;;;;;;;;4976873;28;20153;-79
2023/03/15 12:41:08;;;;;;;0.10;0.10;;;;;;;;;;4983607;28;20065;-78
2023/03/15 12:44:14;;;;;;;0.10;0.10;;;;;;;;;;4987620;28;20061;-78
2023/03/15 12:47:03;;;;;;;0.20;0.20;;;;;;;;;;4985400;28;20580;-79
2023/03/15 12:49:51;;;;;;;0.20;0.20;;;;;;;;;;4981495;28;20030;-78
2023/03/15 12:52:40;;;;;;;0.20;0.20;;;;;;;;;;4983540;28;20038;-78
2023/03/15 12:55:33;;;;;;;0.10;0.10;;;;;;;;;;4983855;28;20565;-78
2023/03/15 12:58:20;;;;;;;0.15;0.15;;;;;;;;;;4988822;28;20034;-78
2023/03/15 13:01:09;;;;;;;0.10;0.10;;;;;;;;;;4986165;28;20772;-78
2023/03/15 13:03:57;;;;;;;0.15;0.15;;;;;;;;;;4984563;28;20061;-77
2023/03/15 13:06:52;;;;;;;0.20;0.20;;;;;;;;;;4986373;28;20042;-78
2023/03/15 13:09:44;;;;;;;0.10;0.10;;;;;;;;;;4985758;28;20052;-78
2023/03/15 13:12:42;;;;;;;0.10;0.10;;;;;;;;;;4981455;28;20038;-78
2023/03/15 13:15:31;;;;;;;0.20;0.20;;;;;;;;;;4986463;28;20038;-79
2023/03/15 13:18:19;;;;;;;0.10;0.10;;;;;;;;;;4985076;28;20061;-78
2023/03/15 13:21:08;;;;;;;0.10;0.10;;;;;;;;;;4981055;28;20580;-78
2023/03/15 13:23:56;;;;;;;0.10;0.10;;;;;;;;;;4984889;28;20471;-78
2023/03/15 13:26:54;;;;;;;0.20;0.20;;;;;;;;;;4984801;28;20030;-78
2023/03/15 13:29:40;;;;;;;0.20;0.20;;;;;;;;;;4987949;28;20087;-78
2023/03/15 13:32:28;;;;;;;0.03;0.03;;;;;;;;;;4982628;28;20042;-77
2023/03/15 13:35:13;;;;;;;0.17;0.17;;;;;;;;;;4987069;28;20041;-77
2023/03/15 13:38:06;;;;;;;0.20;0.20;;;;;;;;;;4980935;28;20057;-77
2023/03/15 13:40:53;;;;;;;0.20;0.20;;;;;;;;;;4979006;28;20522;-78
2023/03/15 13:43:39;;;;;;;0.10;0.10;;;;;;;;;;4986627;28;20044;-77
2023/03/15 13:46:25;;;;;;;0.30;0.30;;;;;;;;;;4990025;28;20125;-77
2023/03/15 13:49:12;;;;;;;0.20;0.20;;;;;;;;;;4987717;28;20438;-78
2023/03/15 13:51:58;;;;;;;0.15;0.15;;;;;;;;;;4987000;28;20108;-78
2023/03/15 13:54:44;;;;;;;0.28;0.28;;;;;;;;;;4986734;28;20106;-78
2023/03/15 13:57:30;;;;;;;0.10;0.10;;;;;;;;;;4984137;28;20041;-78
2023/03/15 14:00:18;;;;;;;0.10;0.10;;;;;;;;;;4988184;28;20041;-78
2023/03/15 14:03:12;;;;;;;0.20;0.20;;;;;;;;;;4988031;28;20041;-78
2023/03/15 14:05:59;;;;;;;0.25;0.25;;;;;;;;;;4989429;28;20030;-78
2023/03/15 14:08:48;;;;;;;0.20;0.20;;;;;;;;;;4987459;28;20069;-78
2023/03/15 14:11:39;;;;;;;0.10;0.10;;;;;;;;;;4986585;28;20100;-78
2023/03/15 14:14:26;;;;;;;0.10;0.10;;;;;;;;;;4987596;28;20438;-78
2023/03/15 14:17:24;;;;;;;0.20;0.20;;;;;;;;;;4984549;28;21291;-78
2023/03/15 14:20:14;;;;;;;0.10;0.10;;;;;;;;;;4984196;28;20038;-78
2023/03/15 14:23:02;;;;;;;0.10;0.10;;;;;;;;;;4986983;28;20046;-77
2023/03/15 14:26:10;;;;;;;0.10;0.10;;;;;;;;;;4989485;28;20060;-78
2023/03/15 14:28:57;;;;;;;0.05;0.05;;;;;;;;;;4984081;28;20030;-77
2023/03/15 14:31:52;;;;;;;0.20;0.20;;;;;;;;;;4986268;28;20045;-77
2023/03/15 14:34:46;;;;;;;0.17;0.17;;;;;;;;;;4990878;28;20065;-77
2023/03/15 14:37:34;;;;;;;0.20;0.20;;;;;;;;;;4989357;28;20270;-78
2023/03/15 14:40:34;;;;;;;0.10;0.10;;;;;;;;;;4985323;28;20438;-78
2023/03/15 14:43:21;;;;;;;0.10;0.10;;;;;;;;;;4985788;28;20317;-79
2023/03/15 14:46:07;;;;;;;0.10;0.10;;;;;;;;;;4982873;28;20044;-79
2023/03/15 14:48:54;;;;;;;0.10;0.10;;;;;;;;;;4986672;28;20061;-78
2023/03/15 14:51:40;;;;;;;0.10;0.10;;;;;;;;;;4987862;28;20034;-77
2023/03/15 14:54:27;;;;;;;0.10;0.10;;;;;;;;;;4985405;28;20139;-77
2023/03/15 14:57:14;;;;;;;0.10;0.10;;;;;;;;;;4986055;28;20066;-78
2023/03/15 15:00:12;;;;;;;0.10;0.10;;;;;;;;;;4983594;28;20638;-78
2023/03/15 15:02:58;;;;;;;0.20;0.20;;;;;;;;;;4985635;28;20332;-78
2023/03/15 15:05:44;;;;;;;0.20;0.20;;;;;;;;;;4986435;28;20034;-78
2023/03/15 15:08:30;;;;;;;0.10;0.10;;;;;;;;;;4983555;28;20062;-78
2023/03/15 15:11:21;;;;;;;0.17;0.17;;;;;;;;;;4983309;28;20040;-78
2023/03/15 15:14:16;;;;;;;0.20;0.20;;;;;;;;;;4999826;28;20455;-79
2023/03/15 15:17:03;;;;;;;0.20;0.20;;;;;;;;;;4986036;28;20443;-80
2023/03/15 15:19:48;;;;;;;0.10;0.10;;;;;;;;;;4984782;28;20479;-77
2023/03/15 15:22:34;;;;;;;0.17;0.17;;;;;;;;;;4985265;28;20029;-78
2023/03/15 15:25:21;;;;;;;0.20;0.20;;;;;;;;;;4986813;28;20572;-78
2023/03/15 15:28:07;;;;;;;0.10;0.10;;;;;;;;;;4989901;28;20038;-78
2023/03/15 15:30:53;;;;;;;0.10;0.10;;;;;;;;;;4982140;28;20439;-78
2023/03/15 15:33:38;;;;;;;0.10;0.10;;;;;;;;;;4982842;28;20619;-77
2023/03/15 15:36:30;;;;;;;0.10;0.10;;;;;;;;;;4985830;28;20435;-78
2023/03/15 15:39:23;;;;;;;0.10;0.10;;;;;;;;;;4980502;28;20042;-78
2023/03/15 15:42:09;;;;;;;0.10;0.10;;;;;;;;;;4985594;28;20038;-78
2023/03/15 15:44:55;;;;;;;0.20;0.20;;;;;;;;;;4979403;28;20031;-78
2023/03/15 15:47:41;;;;;;;0.00;0.00;;;;;;;;;;4984940;28;20374;-78
2023/03/15 15:50:27;;;;;;;0.10;0.10;;;;;;;;;;4959007;28;20049;-78
2023/03/15 15:53:15;;;;;;;0.10;0.10;;;;;;;;;;4841857;28;20399;-77
2023/03/15 15:56:01;;;;;;;0.10;0.10;;;;;;;;;;4933523;28;20441;-76
2023/03/15 15:58:58;;;;;;;0.15;0.15;;;;;;;;;;4857405;28;20426;-76
2023/03/15 16:01:45;;;;;;;0.10;0.10;;;;;;;;;;4917125;28;20125;-78
2023/03/15 16:04:31;;;;;;;0.10;0.10;;;;;;;;;;4984858;28;20122;-77
2023/03/15 16:07:17;;;;;;;0.10;0.10;;;;;;;;;;4984657;28;20465;-77
2023/03/15 16:10:04;;;;;;;0.10;0.10;;;;;;;;;;4987013;28;20442;-77
2023/03/15 16:12:50;;;;;;;0.10;0.10;;;;;;;;;;4985698;28;20045;-77
2023/03/15 16:15:36;;;;;;;0.10;0.10;;;;;;;;;;4983721;28;20471;-77
2023/03/15 16:18:22;;;;;;;0.10;0.10;;;;;;;;;;4981045;28;20369;-77
2023/03/15 16:21:12;;;;;;;0.10;0.10;;;;;;;;;;4985818;28;20415;-77
2023/03/15 16:24:07;;;;;;;0.10;0.10;;;;;;;;;;4983199;28;20125;-77
2023/03/15 16:26:56;;;;;;;0.10;0.10;;;;;;;;;;4982201;28;20038;-76
2023/03/15 16:29:44;;;;;;;0.10;0.10;;;;;;;;;;4985489;28;20029;-76
2023/03/15 16:32:30;;;;;;;0.10;0.10;;;;;;;;;;4985391;28;20398;-77
2023/03/15 16:35:19;;;;;;;0.10;0.10;;;;;;;;;;4987213;28;20510;-76
2023/03/15 16:38:12;;;;;;;0.10;0.10;;;;;;;;;;4980075;28;20272;-76
2023/03/15 16:40:59;;;;;;;0.20;0.20;;;;;;;;;;4986877;28;20049;-76
2023/03/15 16:43:45;;;;;;;0.10;0.10;;;;;;;;;;4996196;28;20037;-76
2023/03/15 16:46:31;;;;;;;0.10;0.10;;;;;;;;;;4983961;28;20033;-76
2023/03/15 16:49:17;;;;;;;0.10;0.10;;;;;;;;;;4984437;28;20616;-76
2023/03/15 16:52:03;;;;;;;0.10;0.10;;;;;;;;;;4989101;28;20483;-76
2023/03/15 16:54:49;;;;;;;0.10;0.10;;;;;;;;;;4983826;28;20045;-75
2023/03/15 16:57:35;;;;;;;0.10;0.10;;;;;;;;;;4980322;28;20664;-76
2023/03/15 17:00:21;;;;;;;0.10;0.10;;;;;;;;;;4986175;28;20038;-76